Piedmont Triad International Airport
KGSO : rendu visible

Aérodrome :











RETROUVEZ-NOUS SUR...

 
LOGIN :

S'inscrire | Disclaimer

   EN    FR    IT 

 









Légende :    VFR   VFR Marginal   IFR   IFR Intensif   IFR Très Intensif
Visi : 
Plafond : 
>= 8 km
>= 3000ft
5 à 8 km
1000 à 3000 ft
1500m à 5 km
500 à 1000 ft
800 à 1500m
200 à 500 ft
< 800m
< 200 ft
Symboles :   Orages  Brouillard  Fortes neiges  Fortes précipitations  Vent > 20 kt







- Altitude de l'aérodrome : 925 ft
- Code IATA : GSO


KGSO - Piedmont Triad International

DERNIER METAR :
  • 230554Z 32009KT 10SM CLR 07/M07 A3002 RMK AO2 SLP164 T00721067 10128 20072 51010

METARs EXPIRÉS :
  • 230454Z 32008KT 10SM CLR 08/M06 A3001 RMK AO2 SLP161 T00781061 401720044
  • 230354Z 32013G18KT 10SM CLR 09/M06 A3001 RMK AO2 SLP159 T00891056

TAF KGSO
Valide du 23 à 06h jusqu'au 24 à 06h UTC


230536Z 2306/2406 32008KT P6SM SKC
FM231500 30009G14KT P6SM SKC
FM232300 VRB05KT P6SM SKC
FIR KZTL / Amérique du Nord



MET'MAP, la Météo Aéronautique d'un coup d'oeil ! - Copyright ORBIFLY Décembre 2007 - Disclaimer

ORBIFLY MET'MAP TEAM :

Programmation & Développement : Alexandra Zaïnal
Conception & Développement : Baudouin d'Aumeries
Co-Programmation & Développement : Marc-Olivier Méhu
Soutien technique & logistique : Manuel Goepfert

Contact : metmap@orbifly.com




SOURCES & CREDITS :

   NOAA       Earth
Advisory